createdAt,value
2018-12-20T00:01:00.933Z,57.63
2018-12-20T00:03:30.628Z,59.63
2018-12-20T00:06:00.380Z,61.87
2018-12-20T00:08:30.344Z,54.43
2018-12-20T00:11:00.082Z,59.33
2018-12-20T00:13:29.979Z,56.57
2018-12-20T00:15:59.666Z,60.87
2018-12-20T00:18:29.615Z,63.90
2018-12-20T00:20:59.342Z,68.37
2018-12-20T00:23:29.425Z,60.17
2018-12-20T00:25:59.027Z,61.27
2018-12-20T00:28:28.651Z,60.77
2018-12-20T00:30:58.338Z,64.33
2018-12-20T00:33:28.099Z,64.57
2018-12-20T00:35:58.304Z,65.77
2018-12-20T00:38:28.453Z,66.47
2018-12-20T00:40:58.302Z,68.50
2018-12-20T00:43:28.766Z,67.37
2018-12-20T00:46:09.697Z,67.77
2018-12-20T00:48:51.491Z,65.27
2018-12-20T00:51:29.934Z,66.80
2018-12-20T00:54:02.655Z,73.07
2018-12-20T00:56:32.301Z,62.90
2018-12-20T00:59:01.909Z,68.97
2018-12-20T01:01:31.583Z,67.27
2018-12-20T01:04:01.148Z,63.07
2018-12-20T01:06:31.017Z,61.83
2018-12-20T01:09:00.825Z,64.63
2018-12-20T01:11:31.626Z,66.10
2018-12-20T01:14:01.389Z,62.27
2018-12-20T01:16:31.188Z,64.33
2018-12-20T01:19:00.999Z,61.37
2018-12-20T01:21:30.743Z,66.77
2018-12-20T01:24:00.538Z,64.87
2018-12-20T01:26:30.302Z,67.57
2018-12-20T01:29:00.078Z,63.67
2018-12-20T01:31:30.590Z,69.80
2018-12-20T01:34:00.355Z,74.27
2018-12-20T01:36:30.597Z,75.10
2018-12-20T01:39:00.352Z,73.70
2018-12-20T01:41:30.418Z,70.23
2018-12-20T01:44:00.087Z,67.60
2018-12-20T01:46:30.444Z,69.10
2018-12-20T01:49:00.067Z,74.77
2018-12-20T01:51:30.617Z,76.90
2018-12-20T01:54:00.334Z,76.37
2018-12-20T01:56:30.769Z,76.67
2018-12-20T01:59:00.690Z,73.47
2018-12-20T02:01:30.862Z,76.57
2018-12-20T02:04:00.597Z,71.17
2018-12-20T02:06:30.961Z,77.17
2018-12-20T02:09:00.704Z,69.23
2018-12-20T02:11:31.637Z,66.40
2018-12-20T02:14:01.255Z,71.97
2018-12-20T02:16:31.616Z,72.10
2018-12-20T02:19:01.257Z,68.87
2018-12-20T02:21:31.441Z,69.80
2018-12-20T02:24:01.298Z,60.87
2018-12-20T02:26:31.644Z,68.53
2018-12-20T02:29:01.466Z,74.73
2018-12-20T02:31:31.589Z,83.77
2018-12-20T02:34:01.373Z,70.47
2018-12-20T02:36:31.747Z,81.47
2018-12-20T02:39:01.559Z,70.53
2018-12-20T02:41:32.446Z,77.10
2018-12-20T02:44:02.182Z,74.53
2018-12-20T02:46:32.015Z,77.03
2018-12-20T02:49:01.843Z,73.57
2018-12-20T02:51:31.858Z,70.80
2018-12-20T02:54:01.543Z,72.77
2018-12-20T02:56:31.878Z,67.17
2018-12-20T02:59:01.710Z,62.00
2018-12-20T03:01:31.501Z,67.87
2018-12-20T03:04:01.136Z,71.03
2018-12-20T03:06:31.287Z,72.23
2018-12-20T03:09:00.918Z,64.83
2018-12-20T03:11:31.682Z,71.63
2018-12-20T03:14:01.362Z,73.57
2018-12-20T03:16:31.325Z,68.27
2018-12-20T03:19:00.979Z,68.60
2018-12-20T03:21:30.686Z,69.73
2018-12-20T03:24:00.338Z,76.40
2018-12-20T03:26:29.963Z,75.97
2018-12-20T03:28:59.584Z,73.13
2018-12-20T03:31:29.791Z,69.13
2018-12-20T03:33:59.686Z,65.07
2018-12-20T03:36:29.254Z,67.47
2018-12-20T03:38:58.884Z,67.50
2018-12-20T03:41:28.482Z,66.73
2018-12-20T03:43:58.113Z,72.13
2018-12-20T03:46:27.817Z,81.67
2018-12-20T03:48:57.593Z,75.27
2018-12-20T03:51:27.245Z,75.07
2018-12-20T03:53:56.791Z,79.27
2018-12-20T03:56:26.397Z,88.40
2018-12-20T03:58:56.410Z,95.83
2018-12-20T04:01:26.015Z,80.43
2018-12-20T04:03:55.726Z,93.43
2018-12-20T04:06:25.533Z,85.87
2018-12-20T04:08:55.305Z,87.77
2018-12-20T04:11:25.421Z,99.87
2018-12-20T04:13:55.389Z,90.03
2018-12-20T04:16:25.166Z,97.83
2018-12-20T04:18:54.836Z,103.37
2018-12-20T04:21:24.712Z,100.23
2018-12-20T04:23:54.674Z,99.03
2018-12-20T04:26:24.304Z,102.40
2018-12-20T04:28:54.179Z,107.03
2018-12-20T04:31:24.084Z,107.77
2018-12-20T04:33:53.957Z,98.87
2018-12-20T04:36:23.757Z,103.97
2018-12-20T04:38:53.481Z,104.07
2018-12-20T04:41:23.239Z,122.60
2018-12-20T04:43:53.097Z,121.53
2018-12-20T04:46:22.821Z,151.37
2018-12-20T04:48:52.551Z,177.77
2018-12-20T04:51:22.221Z,201.03
2018-12-20T04:53:52.478Z,174.57
2018-12-20T04:56:22.270Z,159.50
2018-12-20T04:58:52.162Z,177.63
2018-12-20T05:01:21.925Z,187.47
2018-12-20T05:03:51.790Z,265.87
2018-12-20T05:06:21.565Z,208.60
2018-12-20T05:08:51.784Z,277.97
2018-12-20T05:11:22.099Z,175.30
2018-12-20T05:13:51.723Z,253.03
2018-12-20T05:16:21.462Z,233.93
2018-12-20T05:18:51.289Z,285.63
2018-12-20T05:21:21.228Z,171.43
2018-12-20T05:23:51.113Z,96.43
2018-12-20T05:26:21.621Z,88.23
2018-12-20T05:28:51.473Z,101.77
2018-12-20T05:31:21.258Z,84.57
2018-12-20T05:33:50.889Z,102.73
2018-12-20T05:36:21.191Z,112.83
2018-12-20T05:38:51.567Z,100.67
2018-12-20T05:41:21.230Z,88.90
2018-12-20T05:43:51.165Z,88.40
2018-12-20T05:46:20.764Z,81.37
2018-12-20T05:48:50.467Z,82.37
2018-12-20T05:51:20.263Z,82.27
2018-12-20T05:53:49.967Z,74.43
2018-12-20T05:56:19.964Z,78.07
2018-12-20T05:58:50.866Z,76.00
2018-12-20T06:01:22.563Z,78.70
2018-12-20T06:03:52.255Z,77.23
2018-12-20T06:06:21.939Z,73.73
2018-12-20T06:08:51.723Z,71.47
2018-12-20T06:11:21.305Z,69.53
2018-12-20T06:13:52.053Z,73.67
2018-12-20T06:16:23.237Z,84.37
2018-12-20T06:18:53.130Z,70.40
2018-12-20T06:21:22.876Z,72.83
2018-12-20T06:23:52.459Z,69.30
2018-12-20T06:26:22.061Z,70.57
2018-12-20T06:28:52.919Z,77.83
2018-12-20T06:31:22.528Z,76.17
2018-12-20T06:33:52.137Z,89.93
2018-12-20T06:36:21.727Z,77.17
2018-12-20T06:38:51.293Z,78.90
2018-12-20T06:41:20.870Z,72.93
2018-12-20T06:43:50.742Z,82.10
2018-12-20T06:46:21.569Z,81.37
2018-12-20T06:48:51.270Z,76.20
2018-12-20T06:51:20.825Z,73.30
2018-12-20T06:53:50.430Z,73.77
2018-12-20T06:56:19.997Z,81.23
2018-12-20T06:58:49.808Z,83.03
2018-12-20T07:01:19.450Z,77.43
2018-12-20T07:03:48.992Z,75.87
2018-12-20T07:06:18.562Z,75.73
2018-12-20T07:08:48.196Z,70.90
2018-12-20T07:11:18.318Z,79.17
2018-12-20T07:13:48.478Z,76.47
2018-12-20T07:16:18.294Z,79.67
2018-12-20T07:18:48.052Z,77.43
2018-12-20T07:21:17.984Z,77.90
2018-12-20T07:23:47.595Z,79.10
2018-12-20T07:26:17.267Z,66.43
2018-12-20T07:28:47.314Z,71.23
2018-12-20T07:31:17.165Z,69.40
2018-12-20T07:33:46.977Z,77.70
2018-12-20T07:36:16.630Z,73.10
2018-12-20T07:38:46.296Z,74.27
2018-12-20T07:41:16.801Z,78.90
2018-12-20T07:43:46.726Z,74.23
2018-12-20T07:46:16.504Z,77.30
2018-12-20T07:48:47.298Z,72.90
2018-12-20T07:51:17.475Z,77.07
2018-12-20T07:53:47.050Z,71.10
2018-12-20T07:56:17.957Z,78.47
2018-12-20T07:58:48.143Z,72.67
2018-12-20T08:01:17.771Z,70.73
2018-12-20T08:03:47.704Z,76.50
2018-12-20T08:06:17.530Z,68.43
2018-12-20T08:08:48.098Z,73.77
2018-12-20T08:11:18.174Z,69.27
2018-12-20T08:13:48.369Z,65.80
2018-12-20T08:16:18.368Z,64.43
2018-12-20T08:18:48.014Z,64.50
2018-12-20T08:21:17.814Z,65.20
2018-12-20T08:23:47.516Z,66.63
2018-12-20T08:26:19.353Z,66.13
2018-12-20T08:28:50.010Z,66.80
2018-12-20T08:31:19.577Z,64.70
2018-12-20T08:33:49.204Z,60.33
2018-12-20T08:36:18.845Z,64.50
2018-12-20T08:38:48.507Z,63.57
2018-12-20T08:41:18.308Z,60.23
2018-12-20T08:43:48.577Z,64.57
2018-12-20T08:46:19.736Z,63.97
2018-12-20T08:48:49.343Z,68.90
2018-12-20T08:51:19.097Z,64.30
2018-12-20T08:53:48.634Z,70.43
2018-12-20T08:56:18.274Z,57.37
2018-12-20T08:58:48.562Z,57.60
2018-12-20T09:01:18.346Z,62.87
2018-12-20T09:03:48.170Z,61.13
2018-12-20T09:06:17.816Z,63.43
2018-12-20T09:08:47.990Z,62.70
2018-12-20T09:11:18.237Z,60.63
2018-12-20T09:13:48.662Z,58.83
2018-12-20T09:16:18.533Z,59.60
2018-12-20T09:18:48.758Z,55.23
2018-12-20T09:21:18.807Z,65.13
2018-12-20T09:23:48.775Z,58.70
2018-12-20T09:26:18.989Z,59.37
2018-12-20T09:28:49.426Z,56.20
2018-12-20T09:31:19.039Z,60.23
2018-12-20T09:33:49.428Z,57.33
2018-12-20T09:36:19.039Z,55.53
2018-12-20T09:38:49.268Z,53.30
2018-12-20T09:41:18.900Z,55.73
2018-12-20T09:43:49.897Z,50.60
2018-12-20T09:46:19.719Z,49.83
2018-12-20T09:48:50.016Z,55.83
2018-12-20T09:51:19.633Z,55.30
2018-12-20T09:53:49.741Z,55.60
2018-12-20T09:56:19.891Z,52.73
2018-12-20T09:58:50.529Z,49.47
2018-12-20T10:01:20.291Z,47.67
2018-12-20T10:03:50.879Z,50.27
2018-12-20T10:06:21.047Z,47.87
2018-12-20T10:08:51.167Z,47.77
2018-12-20T10:11:21.229Z,50.07
2018-12-20T10:13:52.389Z,50.87
2018-12-20T10:16:22.019Z,47.40
2018-12-20T10:18:51.737Z,46.60
2018-12-20T10:21:22.008Z,49.83
2018-12-20T10:23:51.870Z,48.13
2018-12-20T10:26:21.488Z,42.13
2018-12-20T10:28:52.098Z,43.47
2018-12-20T10:31:21.696Z,46.73
2018-12-20T10:33:52.194Z,43.03
2018-12-20T10:36:21.787Z,42.37
2018-12-20T10:38:52.093Z,41.80
2018-12-20T10:41:21.684Z,43.10
2018-12-20T10:43:52.279Z,45.60
2018-12-20T10:46:21.848Z,47.40
2018-12-20T10:48:52.461Z,48.33
2018-12-20T10:51:22.052Z,41.23
2018-12-20T10:53:52.168Z,41.70
2018-12-20T10:56:21.747Z,44.60
2018-12-20T10:58:52.283Z,44.13
2018-12-20T11:01:26.934Z,42.87
2018-12-20T11:04:03.181Z,51.27
2018-12-20T11:06:39.019Z,45.17
2018-12-20T11:09:14.220Z,50.97
2018-12-20T11:11:49.987Z,44.63
2018-12-20T11:14:19.587Z,44.87
2018-12-20T11:16:49.648Z,42.70
2018-12-20T11:19:19.237Z,38.50
2018-12-20T11:21:48.870Z,43.97
2018-12-20T11:24:18.469Z,42.60
2018-12-20T11:26:48.107Z,44.07
2018-12-20T11:29:17.712Z,40.13
2018-12-20T11:31:47.618Z,39.77
2018-12-20T11:34:17.163Z,39.90
2018-12-20T11:36:46.712Z,40.83
2018-12-20T11:41:57.600Z,40.77
2018-12-20T11:44:27.202Z,42.80
2018-12-20T11:46:56.906Z,37.47
2018-12-20T11:49:26.442Z,39.47
2018-12-20T11:51:56.163Z,41.90
2018-12-20T11:54:25.708Z,36.60
2018-12-20T11:56:56.169Z,47.73
2018-12-20T11:59:25.814Z,42.17
2018-12-20T12:01:56.548Z,38.97
2018-12-20T12:04:26.518Z,39.80
2018-12-20T12:06:57.544Z,43.03
2018-12-20T12:09:27.184Z,38.13
2018-12-20T12:11:57.451Z,43.30
2018-12-20T12:14:27.769Z,43.23
2018-12-20T12:16:57.597Z,39.63
2018-12-20T12:19:27.242Z,39.40
2018-12-20T12:21:57.768Z,42.43
2018-12-20T12:24:27.356Z,39.83
2018-12-20T12:26:57.709Z,35.83
2018-12-20T12:29:27.306Z,41.63
2018-12-20T12:31:57.982Z,38.70
2018-12-20T12:34:27.610Z,40.97
2018-12-20T12:36:58.016Z,39.90
2018-12-20T12:39:27.651Z,44.47
2018-12-20T12:41:58.069Z,43.20
2018-12-20T12:44:27.636Z,38.80
2018-12-20T12:46:58.667Z,42.57
2018-12-20T12:49:28.258Z,40.57
2018-12-20T12:51:58.875Z,41.43
2018-12-20T12:54:28.517Z,40.93
2018-12-20T12:56:59.112Z,44.27
2018-12-20T12:59:28.750Z,46.83
2018-12-20T13:01:59.126Z,42.73
2018-12-20T13:04:29.226Z,44.83
2018-12-20T13:06:59.333Z,40.60
2018-12-20T13:09:29.006Z,38.97
2018-12-20T13:11:59.237Z,44.83
2018-12-20T13:14:28.923Z,41.50
2018-12-20T13:16:59.224Z,45.33
2018-12-20T13:19:28.927Z,45.90
2018-12-20T13:21:58.856Z,42.83
2018-12-20T13:24:28.562Z,72.33
2018-12-20T13:26:58.982Z,64.00
2018-12-20T13:29:28.558Z,57.33
2018-12-20T13:31:58.412Z,60.40
2018-12-20T13:34:28.071Z,45.93
2018-12-20T13:36:58.584Z,45.30
2018-12-20T13:39:28.206Z,44.30
2018-12-20T13:41:58.103Z,48.97
2018-12-20T13:44:28.216Z,56.40
2018-12-20T13:46:58.013Z,44.40
2018-12-20T13:49:27.588Z,45.43
2018-12-20T13:51:57.424Z,45.83
2018-12-20T13:54:27.063Z,48.03
2018-12-20T13:56:56.729Z,55.10
2018-12-20T13:59:26.315Z,47.50
2018-12-20T14:01:55.910Z,46.90
2018-12-20T14:04:25.562Z,43.37
2018-12-20T14:06:55.183Z,41.57
2018-12-20T14:09:24.841Z,40.37
2018-12-20T14:11:54.387Z,39.37
2018-12-20T14:14:24.012Z,43.33
2018-12-20T14:16:53.744Z,39.87
2018-12-20T14:19:23.350Z,39.53
2018-12-20T14:21:53.044Z,49.63
2018-12-20T14:24:22.651Z,68.57
2018-12-20T14:26:52.212Z,46.60
2018-12-20T14:29:21.777Z,48.93
2018-12-20T14:31:52.777Z,53.97
2018-12-20T14:34:22.444Z,43.33
2018-12-20T14:36:52.080Z,44.27
2018-12-20T14:39:21.791Z,44.63
2018-12-20T14:41:51.357Z,45.33
2018-12-20T14:44:20.948Z,46.57
2018-12-20T14:46:51.134Z,42.67
2018-12-20T14:49:20.780Z,45.17
2018-12-20T14:51:51.350Z,48.00
2018-12-20T14:54:21.136Z,46.63
2018-12-20T14:56:50.769Z,44.27
2018-12-20T14:59:20.386Z,43.43
2018-12-20T15:01:50.421Z,48.43
2018-12-20T15:04:20.002Z,77.63
2018-12-20T15:06:49.598Z,47.57
2018-12-20T15:09:19.290Z,46.83
2018-12-20T15:11:48.902Z,52.90
2018-12-20T15:14:18.536Z,56.27
2018-12-20T15:16:48.587Z,53.53
2018-12-20T15:19:18.170Z,62.43
2018-12-20T15:21:47.853Z,53.57
2018-12-20T15:24:17.530Z,54.23
2018-12-20T15:26:47.257Z,63.70
2018-12-20T15:29:16.857Z,53.67
2018-12-20T15:31:53.378Z,61.67
2018-12-20T15:34:19.195Z,47.57
2018-12-20T15:36:48.831Z,47.70
2018-12-20T15:39:18.547Z,59.83
2018-12-20T15:41:48.167Z,59.60
2018-12-20T15:44:19.774Z,48.73
2018-12-20T15:46:51.328Z,53.10
2018-12-20T15:49:21.187Z,52.70
2018-12-20T15:51:50.838Z,56.50
2018-12-20T15:54:20.439Z,54.90
2018-12-20T15:56:50.113Z,65.67
2018-12-20T15:59:19.829Z,57.73
2018-12-20T16:01:50.702Z,53.30
2018-12-20T16:04:21.442Z,54.03
2018-12-20T16:06:51.181Z,49.97
2018-12-20T16:09:20.832Z,52.93
2018-12-20T16:11:50.516Z,69.27
2018-12-20T16:14:20.826Z,81.30
2018-12-20T16:16:51.969Z,86.63
2018-12-20T16:19:21.610Z,147.60
2018-12-20T16:21:51.226Z,147.07
2018-12-20T16:24:21.788Z,224.90
2018-12-20T16:26:53.121Z,185.47
2018-12-20T16:29:22.816Z,125.93
2018-12-20T16:31:53.334Z,160.77
2018-12-20T16:34:22.934Z,111.47
2018-12-20T16:36:52.662Z,191.40
2018-12-20T16:39:22.369Z,136.87
2018-12-20T16:41:52.035Z,88.03
2018-12-20T16:44:21.674Z,89.47
2018-12-20T16:46:52.181Z,90.77
2018-12-20T16:49:21.972Z,72.87
2018-12-20T16:51:51.605Z,75.03
2018-12-20T16:54:21.215Z,69.27
2018-12-20T16:56:50.791Z,77.30
2018-12-20T16:59:20.402Z,92.67
2018-12-20T17:01:50.982Z,77.10
2018-12-20T17:04:20.675Z,77.90
2018-12-20T17:06:50.358Z,63.73
2018-12-20T17:09:19.973Z,68.07
2018-12-20T17:11:49.707Z,59.33
2018-12-20T17:14:20.162Z,66.43
2018-12-20T17:16:50.450Z,85.83
2018-12-20T17:19:22.299Z,293.97
2018-12-20T17:21:51.801Z,303.17
2018-12-20T17:24:21.426Z,412.50
2018-12-20T17:26:52.398Z,290.87
2018-12-20T17:29:22.152Z,161.13
2018-12-20T17:31:52.533Z,187.93
2018-12-20T17:34:22.584Z,249.37
2018-12-20T17:36:52.226Z,263.93
2018-12-20T17:39:24.891Z,177.07
2018-12-20T17:42:04.602Z,249.50
2018-12-20T17:44:40.249Z,135.77
2018-12-20T17:47:10.532Z,131.17
2018-12-20T17:49:40.201Z,117.03
2018-12-20T17:52:10.546Z,124.20
2018-12-20T17:54:41.719Z,126.33
2018-12-20T17:57:11.551Z,119.33
2018-12-20T17:59:41.207Z,93.93
2018-12-20T18:02:10.826Z,98.90
2018-12-20T18:04:40.525Z,83.77
2018-12-20T18:07:10.128Z,81.17
2018-12-20T18:09:40.984Z,84.00
2018-12-20T18:12:10.717Z,96.53
2018-12-20T18:14:49.246Z,100.13
2018-12-20T18:17:27.500Z,107.10
2018-12-20T18:19:57.423Z,81.27
2018-12-20T18:22:27.499Z,75.33
2018-12-20T18:24:57.199Z,78.47
2018-12-20T18:27:27.010Z,72.83
2018-12-20T18:29:56.683Z,77.67
2018-12-20T18:32:26.351Z,71.00
2018-12-20T18:34:55.992Z,77.13
2018-12-20T18:37:25.591Z,82.03
2018-12-20T18:39:55.165Z,77.20
2018-12-20T18:42:24.871Z,74.90
2018-12-20T18:44:54.470Z,68.57
2018-12-20T18:47:24.096Z,67.37
2018-12-20T18:49:54.314Z,67.33
2018-12-20T18:52:23.898Z,69.13
2018-12-20T18:54:53.495Z,62.20
2018-12-20T18:57:23.176Z,60.53
2018-12-20T18:59:52.757Z,66.10
2018-12-20T19:02:22.326Z,63.27
2018-12-20T19:04:53.568Z,57.80
2018-12-20T19:07:23.322Z,57.57
2018-12-20T19:09:52.953Z,65.17
2018-12-20T19:12:22.570Z,64.67
2018-12-20T19:14:52.225Z,63.30
2018-12-20T19:17:22.086Z,66.77
2018-12-20T19:19:56.286Z,62.70
2018-12-20T19:22:25.460Z,64.53
2018-12-20T19:24:55.138Z,55.43
2018-12-20T19:27:24.747Z,55.83
2018-12-20T19:29:55.007Z,58.13
2018-12-20T19:32:25.073Z,55.97
2018-12-20T19:34:55.511Z,59.80
2018-12-20T19:37:26.257Z,61.17
2018-12-20T19:40:01.617Z,60.97
2018-12-20T19:42:31.316Z,57.37
2018-12-20T19:45:01.437Z,62.77
2018-12-20T19:47:31.464Z,56.73
2018-12-20T19:50:05.062Z,55.33
2018-12-20T19:52:32.840Z,59.17
2018-12-20T19:55:02.985Z,57.13
2018-12-20T19:57:32.717Z,53.50
2018-12-20T20:00:03.861Z,56.93
2018-12-20T20:02:34.608Z,49.63
2018-12-20T20:05:04.702Z,48.37
2018-12-20T20:07:34.501Z,48.23
2018-12-20T20:10:05.452Z,44.87
2018-12-20T20:12:35.239Z,49.80
2018-12-20T20:15:05.960Z,44.03
2018-12-20T20:17:35.687Z,48.97
2018-12-20T20:20:13.444Z,44.47
2018-12-20T20:22:37.777Z,45.03
2018-12-20T20:25:08.840Z,46.47
2018-12-20T20:27:38.984Z,41.57
2018-12-20T20:30:13.857Z,46.07
2018-12-20T20:32:43.725Z,44.53
2018-12-20T20:35:16.892Z,43.77
2018-12-20T20:37:47.295Z,42.83
2018-12-20T20:40:17.057Z,46.60
2018-12-20T20:42:46.970Z,42.10
2018-12-20T20:45:16.796Z,40.50
2018-12-20T20:47:46.700Z,44.40
2018-12-20T20:50:22.389Z,42.13
2018-12-20T20:52:49.074Z,38.47
2018-12-20T20:55:18.875Z,36.53
2018-12-20T20:57:50.905Z,36.00
2018-12-20T21:00:20.840Z,36.40
2018-12-20T21:02:50.727Z,40.77
2018-12-20T21:05:20.663Z,31.97
2018-12-20T21:07:51.513Z,38.77
2018-12-20T21:10:21.366Z,37.00
2018-12-20T21:12:51.040Z,32.40
2018-12-20T21:15:20.644Z,37.00
2018-12-20T21:17:50.247Z,34.17
2018-12-20T21:20:20.346Z,35.83
2018-12-20T21:22:50.710Z,37.10
2018-12-20T21:25:21.344Z,34.43
2018-12-20T21:27:51.063Z,34.50
2018-12-20T21:30:20.671Z,31.83
2018-12-20T21:32:50.326Z,31.07
2018-12-20T21:35:21.477Z,32.30
2018-12-20T21:37:52.352Z,31.50
2018-12-20T21:40:21.893Z,27.57
2018-12-20T21:42:51.490Z,38.10
2018-12-20T21:45:23.322Z,30.93
2018-12-20T21:47:52.963Z,29.43
2018-12-20T21:50:22.620Z,31.17
2018-12-20T21:52:53.059Z,29.63
2018-12-20T21:55:23.032Z,27.47
2018-12-20T21:57:52.718Z,28.67
2018-12-20T22:00:22.279Z,28.30
2018-12-20T22:02:51.890Z,30.77
2018-12-20T22:05:21.519Z,29.33
2018-12-20T22:07:51.772Z,29.40
2018-12-20T22:10:21.938Z,29.60
2018-12-20T22:12:51.616Z,33.07
2018-12-20T22:15:21.310Z,31.23
2018-12-20T22:17:51.041Z,31.97
2018-12-20T22:20:20.780Z,27.33
2018-12-20T22:22:51.578Z,29.20
2018-12-20T22:25:21.511Z,28.10
2018-12-20T22:27:51.664Z,25.97
2018-12-20T22:30:21.684Z,30.77
2018-12-20T22:32:51.561Z,25.53
2018-12-20T22:35:21.404Z,26.00
2018-12-20T22:37:51.779Z,26.77
2018-12-20T22:40:22.046Z,29.97
2018-12-20T22:42:51.905Z,23.13
2018-12-20T22:45:21.764Z,27.87
2018-12-20T22:47:51.582Z,27.43
2018-12-20T22:50:21.838Z,24.87
2018-12-20T22:52:52.145Z,29.40
2018-12-20T22:55:22.411Z,25.23
2018-12-20T22:57:52.186Z,32.67
2018-12-20T23:00:22.540Z,26.67
2018-12-20T23:02:52.570Z,28.70
2018-12-20T23:05:23.147Z,26.47
2018-12-20T23:07:53.219Z,24.07
2018-12-20T23:10:23.359Z,25.33
2018-12-20T23:12:53.221Z,23.83
2018-12-20T23:15:23.621Z,23.70
2018-12-20T23:17:53.364Z,25.73
2018-12-20T23:20:23.843Z,23.53
2018-12-20T23:22:53.669Z,22.23
2018-12-20T23:25:24.126Z,19.33
2018-12-20T23:27:53.831Z,20.57
2018-12-20T23:30:24.320Z,22.10
2018-12-20T23:32:55.094Z,22.70
2018-12-20T23:35:25.401Z,18.87
2018-12-20T23:37:55.306Z,18.33
2018-12-20T23:40:25.502Z,19.43
2018-12-20T23:42:55.365Z,19.87
2018-12-20T23:45:25.634Z,21.90
2018-12-20T23:47:55.420Z,18.33
2018-12-20T23:50:25.402Z,20.80
2018-12-20T23:52:55.448Z,19.93
2018-12-20T23:55:25.929Z,19.87
2018-12-20T23:57:55.707Z,21.30
